sensor_id;sensor_type;location;lat;lon;timestamp;temperature;humidity
4056;DHT22;2043;52.184;8.690;2023-02-22T00:01:14;8.00;99.90
4056;DHT22;2043;52.184;8.690;2023-02-22T00:04:01;8.10;99.90
4056;DHT22;2043;52.184;8.690;2023-02-22T00:06:29;8.00;99.90
4056;DHT22;2043;52.184;8.690;2023-02-22T00:08:57;8.10;99.90
4056;DHT22;2043;52.184;8.690;2023-02-22T00:11:25;8.10;99.90
4056;DHT22;2043;52.184;8.690;2023-02-22T00:13:52;8.10;99.90
4056;DHT22;2043;52.184;8.690;2023-02-22T00:16:24;8.10;99.90
4056;DHT22;2043;52.184;8.690;2023-02-22T00:18:52;8.10;99.90
4056;DHT22;2043;52.184;8.690;2023-02-22T00:21:19;8.10;99.90
4056;DHT22;2043;52.184;8.690;2023-02-22T00:23:47;8.10;99.90
4056;DHT22;2043;52.184;8.690;2023-02-22T00:26:17;8.10;99.90
4056;DHT22;2043;52.184;8.690;2023-02-22T00:28:46;8.10;99.90
4056;DHT22;2043;52.184;8.690;2023-02-22T00:31:13;8.10;99.90
4056;DHT22;2043;52.184;8.690;2023-02-22T00:33:42;8.10;99.90
4056;DHT22;2043;52.184;8.690;2023-02-22T00:36:10;8.10;99.90
4056;DHT22;2043;52.184;8.690;2023-02-22T00:38:38;8.10;99.90
4056;DHT22;2043;52.184;8.690;2023-02-22T00:41:05;8.10;99.90
4056;DHT22;2043;52.184;8.690;2023-02-22T00:43:33;8.10;99.90
4056;DHT22;2043;52.184;8.690;2023-02-22T00:46:00;8.10;99.90
4056;DHT22;2043;52.184;8.690;2023-02-22T00:48:27;8.10;99.90
4056;DHT22;2043;52.184;8.690;2023-02-22T00:50:54;8.10;99.90
4056;DHT22;2043;52.184;8.690;2023-02-22T00:53:25;8.10;99.90
4056;DHT22;2043;52.184;8.690;2023-02-22T00:55:52;8.10;99.90
4056;DHT22;2043;52.184;8.690;2023-02-22T00:58:20;8.20;99.90
4056;DHT22;2043;52.184;8.690;2023-02-22T01:00:47;8.20;99.90
4056;DHT22;2043;52.184;8.690;2023-02-22T01:03:17;8.20;99.90
4056;DHT22;2043;52.184;8.690;2023-02-22T01:05:45;8.20;99.90
4056;DHT22;2043;52.184;8.690;2023-02-22T01:08:14;8.30;99.90
4056;DHT22;2043;52.184;8.690;2023-02-22T01:10:41;8.30;99.90
4056;DHT22;2043;52.184;8.690;2023-02-22T01:13:09;8.20;99.90
4056;DHT22;2043;52.184;8.690;2023-02-22T01:15:40;8.20;99.90
4056;DHT22;2043;52.184;8.690;2023-02-22T01:18:07;8.30;99.90
4056;DHT22;2043;52.184;8.690;2023-02-22T01:20:34;8.30;99.90
4056;DHT22;2043;52.184;8.690;2023-02-22T01:23:02;8.30;99.90
4056;DHT22;2043;52.184;8.690;2023-02-22T01:25:32;8.30;99.90
4056;DHT22;2043;52.184;8.690;2023-02-22T01:28:00;8.30;99.90
4056;DHT22;2043;52.184;8.690;2023-02-22T01:30:29;8.30;99.90
4056;DHT22;2043;52.184;8.690;2023-02-22T01:32:57;8.30;99.90
4056;DHT22;2043;52.184;8.690;2023-02-22T01:35:30;8.30;99.90
4056;DHT22;2043;52.184;8.690;2023-02-22T01:37:57;8.30;99.90
4056;DHT22;2043;52.184;8.690;2023-02-22T01:40:28;8.30;99.90
4056;DHT22;2043;52.184;8.690;2023-02-22T01:42:58;8.30;99.90
4056;DHT22;2043;52.184;8.690;2023-02-22T01:48:21;8.30;99.90
4056;DHT22;2043;52.184;8.690;2023-02-22T01:54:05;8.20;99.90
4056;DHT22;2043;52.184;8.690;2023-02-22T01:56:36;8.30;99.90
4056;DHT22;2043;52.184;8.690;2023-02-22T01:59:07;8.30;99.90
4056;DHT22;2043;52.184;8.690;2023-02-22T02:01:37;8.20;99.90
4056;DHT22;2043;52.184;8.690;2023-02-22T02:04:09;8.20;99.90
4056;DHT22;2043;52.184;8.690;2023-02-22T02:06:36;8.10;99.90
4056;DHT22;2043;52.184;8.690;2023-02-22T02:09:19;8.00;99.90
4056;DHT22;2043;52.184;8.690;2023-02-22T02:11:48;8.00;99.90
4056;DHT22;2043;52.184;8.690;2023-02-22T02:14:15;7.90;99.90
4056;DHT22;2043;52.184;8.690;2023-02-22T02:16:46;7.90;99.90
4056;DHT22;2043;52.184;8.690;2023-02-22T02:33:32;7.70;99.90
4056;DHT22;2043;52.184;8.690;2023-02-22T02:36:06;7.70;99.90
4056;DHT22;2043;52.184;8.690;2023-02-22T02:38:38;7.70;99.90
4056;DHT22;2043;52.184;8.690;2023-02-22T02:41:26;7.70;99.90
4056;DHT22;2043;52.184;8.690;2023-02-22T02:44:03;7.60;99.90
4056;DHT22;2043;52.184;8.690;2023-02-22T02:46:43;7.50;99.90
4056;DHT22;2043;52.184;8.690;2023-02-22T02:49:18;7.40;99.90
4056;DHT22;2043;52.184;8.690;2023-02-22T02:51:50;7.40;99.90
4056;DHT22;2043;52.184;8.690;2023-02-22T02:54:21;7.30;99.90
4056;DHT22;2043;52.184;8.690;2023-02-22T02:56:49;7.20;99.90
4056;DHT22;2043;52.184;8.690;2023-02-22T02:59:27;7.10;99.90
4056;DHT22;2043;52.184;8.690;2023-02-22T03:29:53;6.10;99.90
4056;DHT22;2043;52.184;8.690;2023-02-22T03:32:24;6.10;99.90
4056;DHT22;2043;52.184;8.690;2023-02-22T03:34:57;6.00;99.90
4056;DHT22;2043;52.184;8.690;2023-02-22T03:37:28;5.90;99.90
4056;DHT22;2043;52.184;8.690;2023-02-22T03:39:58;5.90;99.90
4056;DHT22;2043;52.184;8.690;2023-02-22T03:42:32;5.80;99.90
4056;DHT22;2043;52.184;8.690;2023-02-22T03:45:02;5.70;99.90
4056;DHT22;2043;52.184;8.690;2023-02-22T03:47:37;5.70;99.90
4056;DHT22;2043;52.184;8.690;2023-02-22T03:50:24;5.70;99.90
4056;DHT22;2043;52.184;8.690;2023-02-22T03:52:52;5.60;99.90
4056;DHT22;2043;52.184;8.690;2023-02-22T03:55:20;5.50;99.90
4056;DHT22;2043;52.184;8.690;2023-02-22T03:57:51;5.40;99.90
4056;DHT22;2043;52.184;8.690;2023-02-22T04:00:23;5.30;99.90
4056;DHT22;2043;52.184;8.690;2023-02-22T04:02:51;5.20;99.90
4056;DHT22;2043;52.184;8.690;2023-02-22T04:05:18;5.20;99.90
4056;DHT22;2043;52.184;8.690;2023-02-22T04:07:45;5.10;99.90
4056;DHT22;2043;52.184;8.690;2023-02-22T04:10:14;5.00;99.90
4056;DHT22;2043;52.184;8.690;2023-02-22T04:12:40;5.00;99.90
4056;DHT22;2043;52.184;8.690;2023-02-22T04:15:10;4.90;99.90
4056;DHT22;2043;52.184;8.690;2023-02-22T04:20:04;4.70;99.90
4056;DHT22;2043;52.184;8.690;2023-02-22T04:22:32;4.60;99.90
4056;DHT22;2043;52.184;8.690;2023-02-22T04:24:59;4.60;99.90
4056;DHT22;2043;52.184;8.690;2023-02-22T04:27:26;4.50;99.90
4056;DHT22;2043;52.184;8.690;2023-02-22T04:29:52;4.40;99.90
4056;DHT22;2043;52.184;8.690;2023-02-22T04:32:19;4.40;99.90
4056;DHT22;2043;52.184;8.690;2023-02-22T04:34:46;4.40;99.90
4056;DHT22;2043;52.184;8.690;2023-02-22T04:37:13;4.40;99.90
4056;DHT22;2043;52.184;8.690;2023-02-22T04:39:39;4.30;99.90
4056;DHT22;2043;52.184;8.690;2023-02-22T04:42:06;4.30;99.90
4056;DHT22;2043;52.184;8.690;2023-02-22T04:44:33;4.30;99.90
4056;DHT22;2043;52.184;8.690;2023-02-22T04:47:00;4.30;99.90
4056;DHT22;2043;52.184;8.690;2023-02-22T04:49:26;4.20;99.90
4056;DHT22;2043;52.184;8.690;2023-02-22T04:51:53;4.20;99.90
4056;DHT22;2043;52.184;8.690;2023-02-22T04:54:22;4.10;99.90
4056;DHT22;2043;52.184;8.690;2023-02-22T04:56:49;4.10;99.90
4056;DHT22;2043;52.184;8.690;2023-02-22T04:59:15;4.00;99.90
4056;DHT22;2043;52.184;8.690;2023-02-22T05:04:10;3.90;99.90
4056;DHT22;2043;52.184;8.690;2023-02-22T05:06:36;3.90;99.90
4056;DHT22;2043;52.184;8.690;2023-02-22T05:09:04;4.00;99.90
4056;DHT22;2043;52.184;8.690;2023-02-22T05:11:31;4.00;99.90
4056;DHT22;2043;52.184;8.690;2023-02-22T05:13:58;4.00;99.90
4056;DHT22;2043;52.184;8.690;2023-02-22T05:16:24;4.00;99.90
4056;DHT22;2043;52.184;8.690;2023-02-22T05:18:52;3.90;99.90
4056;DHT22;2043;52.184;8.690;2023-02-22T05:21:18;3.90;99.90
4056;DHT22;2043;52.184;8.690;2023-02-22T05:23:45;3.90;99.90
4056;DHT22;2043;52.184;8.690;2023-02-22T05:26:12;3.90;99.90
4056;DHT22;2043;52.184;8.690;2023-02-22T05:28:38;3.80;99.90
4056;DHT22;2043;52.184;8.690;2023-02-22T05:31:06;3.80;99.90
4056;DHT22;2043;52.184;8.690;2023-02-22T05:33:33;3.80;99.90
4056;DHT22;2043;52.184;8.690;2023-02-22T05:36:00;3.90;99.90
4056;DHT22;2043;52.184;8.690;2023-02-22T05:38:27;4.00;99.90
4056;DHT22;2043;52.184;8.690;2023-02-22T05:40:53;4.00;99.90
4056;DHT22;2043;52.184;8.690;2023-02-22T05:43:20;3.90;99.90
4056;DHT22;2043;52.184;8.690;2023-02-22T05:45:47;3.80;99.90
4056;DHT22;2043;52.184;8.690;2023-02-22T05:48:14;3.70;99.90
4056;DHT22;2043;52.184;8.690;2023-02-22T05:50:41;3.60;99.90
4056;DHT22;2043;52.184;8.690;2023-02-22T05:53:07;3.60;99.90
4056;DHT22;2043;52.184;8.690;2023-02-22T05:55:34;3.60;99.90
4056;DHT22;2043;52.184;8.690;2023-02-22T05:58:01;3.60;99.90
4056;DHT22;2043;52.184;8.690;2023-02-22T06:00:31;3.60;99.90
4056;DHT22;2043;52.184;8.690;2023-02-22T06:03:04;3.60;99.90
4056;DHT22;2043;52.184;8.690;2023-02-22T06:05:31;3.60;99.90
4056;DHT22;2043;52.184;8.690;2023-02-22T06:07:58;3.60;99.90
4056;DHT22;2043;52.184;8.690;2023-02-22T06:10:26;3.60;99.90
4056;DHT22;2043;52.184;8.690;2023-02-22T06:12:54;3.50;99.90
4056;DHT22;2043;52.184;8.690;2023-02-22T06:15:22;3.50;99.90
4056;DHT22;2043;52.184;8.690;2023-02-22T06:17:50;3.40;99.90
4056;DHT22;2043;52.184;8.690;2023-02-22T06:20:19;3.50;99.90
4056;DHT22;2043;52.184;8.690;2023-02-22T06:22:47;3.60;99.90
4056;DHT22;2043;52.184;8.690;2023-02-22T06:25:16;3.50;99.90
4056;DHT22;2043;52.184;8.690;2023-02-22T06:27:44;3.40;99.90
4056;DHT22;2043;52.184;8.690;2023-02-22T06:30:12;3.40;99.90
4056;DHT22;2043;52.184;8.690;2023-02-22T06:32:39;3.40;99.90
4056;DHT22;2043;52.184;8.690;2023-02-22T06:35:06;3.40;99.90
4056;DHT22;2043;52.184;8.690;2023-02-22T06:37:33;3.50;99.90
4056;DHT22;2043;52.184;8.690;2023-02-22T06:40:00;3.50;99.90
4056;DHT22;2043;52.184;8.690;2023-02-22T06:42:31;3.50;99.90
4056;DHT22;2043;52.184;8.690;2023-02-22T06:44:58;3.60;99.90
4056;DHT22;2043;52.184;8.690;2023-02-22T06:47:25;3.60;99.90
4056;DHT22;2043;52.184;8.690;2023-02-22T06:49:53;3.50;99.90
4056;DHT22;2043;52.184;8.690;2023-02-22T06:52:21;3.50;99.90
4056;DHT22;2043;52.184;8.690;2023-02-22T06:54:48;3.50;99.90
4056;DHT22;2043;52.184;8.690;2023-02-22T06:57:15;3.40;99.90
4056;DHT22;2043;52.184;8.690;2023-02-22T06:59:42;3.40;99.90
4056;DHT22;2043;52.184;8.690;2023-02-22T07:02:10;3.50;99.90
4056;DHT22;2043;52.184;8.690;2023-02-22T07:04:38;3.50;99.90
4056;DHT22;2043;52.184;8.690;2023-02-22T07:09:36;3.60;99.90
4056;DHT22;2043;52.184;8.690;2023-02-22T07:12:03;3.70;99.90
4056;DHT22;2043;52.184;8.690;2023-02-22T07:14:30;3.70;99.90
4056;DHT22;2043;52.184;8.690;2023-02-22T07:19:24;4.00;99.90
4056;DHT22;2043;52.184;8.690;2023-02-22T07:21:51;4.10;99.90
4056;DHT22;2043;52.184;8.690;2023-02-22T07:24:25;4.30;99.90
4056;DHT22;2043;52.184;8.690;2023-02-22T07:26:54;4.40;99.90
4056;DHT22;2043;52.184;8.690;2023-02-22T07:29:20;4.60;99.90
4056;DHT22;2043;52.184;8.690;2023-02-22T07:31:48;4.90;99.90
4056;DHT22;2043;52.184;8.690;2023-02-22T07:34:15;5.00;99.90
4056;DHT22;2043;52.184;8.690;2023-02-22T07:36:42;5.10;99.90
4056;DHT22;2043;52.184;8.690;2023-02-22T07:39:08;5.20;99.90
4056;DHT22;2043;52.184;8.690;2023-02-22T07:41:36;5.40;99.90
4056;DHT22;2043;52.184;8.690;2023-02-22T07:44:03;5.60;99.90
4056;DHT22;2043;52.184;8.690;2023-02-22T07:46:30;5.70;99.90
4056;DHT22;2043;52.184;8.690;2023-02-22T07:48:57;5.70;99.90
4056;DHT22;2043;52.184;8.690;2023-02-22T07:51:23;5.90;99.90
4056;DHT22;2043;52.184;8.690;2023-02-22T07:53:50;6.00;99.90
4056;DHT22;2043;52.184;8.690;2023-02-22T07:56:17;6.10;99.90
4056;DHT22;2043;52.184;8.690;2023-02-22T07:58:44;6.20;99.90
4056;DHT22;2043;52.184;8.690;2023-02-22T08:01:11;6.30;99.90
4056;DHT22;2043;52.184;8.690;2023-02-22T08:03:41;6.50;99.90
4056;DHT22;2043;52.184;8.690;2023-02-22T08:06:08;6.60;99.90
4056;DHT22;2043;52.184;8.690;2023-02-22T08:08:34;6.80;99.90
4056;DHT22;2043;52.184;8.690;2023-02-22T08:11:02;7.00;99.90
4056;DHT22;2043;52.184;8.690;2023-02-22T08:13:29;7.30;99.90
4056;DHT22;2043;52.184;8.690;2023-02-22T08:15:56;7.40;99.90
4056;DHT22;2043;52.184;8.690;2023-02-22T08:18:24;7.90;99.90
4056;DHT22;2043;52.184;8.690;2023-02-22T08:20:52;8.20;99.90
4056;DHT22;2043;52.184;8.690;2023-02-22T08:23:20;8.50;99.90
4056;DHT22;2043;52.184;8.690;2023-02-22T08:25:48;8.70;99.90
4056;DHT22;2043;52.184;8.690;2023-02-22T08:28:17;8.90;99.90
4056;DHT22;2043;52.184;8.690;2023-02-22T08:30:45;8.80;99.90
4056;DHT22;2043;52.184;8.690;2023-02-22T08:33:13;8.80;99.90
4056;DHT22;2043;52.184;8.690;2023-02-22T08:35:42;8.90;99.90
4056;DHT22;2043;52.184;8.690;2023-02-22T08:38:30;9.10;99.90
4056;DHT22;2043;52.184;8.690;2023-02-22T08:40:57;9.30;99.90
4056;DHT22;2043;52.184;8.690;2023-02-22T08:43:24;9.40;99.90
4056;DHT22;2043;52.184;8.690;2023-02-22T08:45:51;9.40;99.90
4056;DHT22;2043;52.184;8.690;2023-02-22T08:48:19;9.80;99.90
4056;DHT22;2043;52.184;8.690;2023-02-22T08:50:46;9.90;99.90
4056;DHT22;2043;52.184;8.690;2023-02-22T08:53:14;9.70;99.90
4056;DHT22;2043;52.184;8.690;2023-02-22T08:55:42;9.60;99.90
4056;DHT22;2043;52.184;8.690;2023-02-22T08:58:09;9.90;99.90
4056;DHT22;2043;52.184;8.690;2023-02-22T09:00:37;10.20;99.90
4056;DHT22;2043;52.184;8.690;2023-02-22T09:03:09;10.30;99.90
4056;DHT22;2043;52.184;8.690;2023-02-22T09:05:39;10.20;99.90
4056;DHT22;2043;52.184;8.690;2023-02-22T09:08:05;10.20;99.90
4056;DHT22;2043;52.184;8.690;2023-02-22T09:10:33;10.10;99.90
4056;DHT22;2043;52.184;8.690;2023-02-22T09:13:01;10.10;99.90
4056;DHT22;2043;52.184;8.690;2023-02-22T09:15:30;10.40;99.90
4056;DHT22;2043;52.184;8.690;2023-02-22T09:17:57;10.40;99.90
4056;DHT22;2043;52.184;8.690;2023-02-22T09:20:24;10.50;99.90
4056;DHT22;2043;52.184;8.690;2023-02-22T09:22:51;10.50;99.90
4056;DHT22;2043;52.184;8.690;2023-02-22T09:25:19;10.50;99.90
4056;DHT22;2043;52.184;8.690;2023-02-22T09:27:50;10.80;99.90
4056;DHT22;2043;52.184;8.690;2023-02-22T09:30:25;10.90;99.90
4056;DHT22;2043;52.184;8.690;2023-02-22T09:32:58;11.00;99.90
4056;DHT22;2043;52.184;8.690;2023-02-22T09:35:25;11.50;99.90
4056;DHT22;2043;52.184;8.690;2023-02-22T09:37:56;11.80;99.90
4056;DHT22;2043;52.184;8.690;2023-02-22T09:40:25;11.80;99.90
4056;DHT22;2043;52.184;8.690;2023-02-22T09:49:08;11.90;99.90
4056;DHT22;2043;52.184;8.690;2023-02-22T09:51:43;11.90;99.90
4056;DHT22;2043;52.184;8.690;2023-02-22T09:54:22;11.80;99.90
4056;DHT22;2043;52.184;8.690;2023-02-22T09:56:52;11.70;99.90
4056;DHT22;2043;52.184;8.690;2023-02-22T09:59:26;11.40;99.90
4056;DHT22;2043;52.184;8.690;2023-02-22T10:01:58;11.20;99.90
4056;DHT22;2043;52.184;8.690;2023-02-22T10:04:38;11.40;99.90
4056;DHT22;2043;52.184;8.690;2023-02-22T10:07:31;11.60;99.90
4056;DHT22;2043;52.184;8.690;2023-02-22T10:09:59;11.80;99.90
4056;DHT22;2043;52.184;8.690;2023-02-22T10:12:43;12.00;99.90
4056;DHT22;2043;52.184;8.690;2023-02-22T10:15:41;12.10;99.90
4056;DHT22;2043;52.184;8.690;2023-02-22T10:26:43;12.90;98.50
4056;DHT22;2043;52.184;8.690;2023-02-22T10:32:08;13.40;97.50
4056;DHT22;2043;52.184;8.690;2023-02-22T10:34:43;13.70;96.60
4056;DHT22;2043;52.184;8.690;2023-02-22T10:37:32;13.90;96.00
4056;DHT22;2043;52.184;8.690;2023-02-22T10:42:39;13.80;95.70
4056;DHT22;2043;52.184;8.690;2023-02-22T10:45:19;13.90;95.90
4056;DHT22;2043;52.184;8.690;2023-02-22T10:47:48;13.80;94.30
4056;DHT22;2043;52.184;8.690;2023-02-22T10:50:15;13.70;95.10
4056;DHT22;2043;52.184;8.690;2023-02-22T10:52:43;13.80;95.40
4056;DHT22;2043;52.184;8.690;2023-02-22T10:55:13;13.90;94.90
4056;DHT22;2043;52.184;8.690;2023-02-22T10:57:44;13.70;94.70
4056;DHT22;2043;52.184;8.690;2023-02-22T11:00:14;13.70;94.90
4056;DHT22;2043;52.184;8.690;2023-02-22T11:03:00;13.80;95.00
4056;DHT22;2043;52.184;8.690;2023-02-22T11:05:38;13.80;95.40
4056;DHT22;2043;52.184;8.690;2023-02-22T11:10:49;13.70;95.30
4056;DHT22;2043;52.184;8.690;2023-02-22T11:13:24;13.70;95.40
4056;DHT22;2043;52.184;8.690;2023-02-22T11:15:58;13.80;95.20
4056;DHT22;2043;52.184;8.690;2023-02-22T11:18:26;14.10;94.70
4056;DHT22;2043;52.184;8.690;2023-02-22T11:21:07;14.10;94.70
4056;DHT22;2043;52.184;8.690;2023-02-22T11:23:38;13.90;95.20
4056;DHT22;2043;52.184;8.690;2023-02-22T11:26:13;14.00;94.70
4056;DHT22;2043;52.184;8.690;2023-02-22T11:28:48;13.80;94.80
4056;DHT22;2043;52.184;8.690;2023-02-22T11:31:19;13.70;94.40
4056;DHT22;2043;52.184;8.690;2023-02-22T11:33:55;13.60;94.10
4056;DHT22;2043;52.184;8.690;2023-02-22T11:36:38;13.70;94.70
4056;DHT22;2043;52.184;8.690;2023-02-22T11:39:30;13.70;94.80
4056;DHT22;2043;52.184;8.690;2023-02-22T11:42:20;13.80;94.90
4056;DHT22;2043;52.184;8.690;2023-02-22T11:45:10;14.00;95.00
4056;DHT22;2043;52.184;8.690;2023-02-22T11:47:50;14.10;94.10
4056;DHT22;2043;52.184;8.690;2023-02-22T11:50:30;14.00;93.20
4056;DHT22;2043;52.184;8.690;2023-02-22T11:58:55;14.20;93.10
4056;DHT22;2043;52.184;8.690;2023-02-22T12:01:35;14.30;93.10
4056;DHT22;2043;52.184;8.690;2023-02-22T12:15:15;14.70;92.30
4056;DHT22;2043;52.184;8.690;2023-02-22T12:20:46;14.80;91.70
4056;DHT22;2043;52.184;8.690;2023-02-22T12:34:56;15.20;91.60
4056;DHT22;2043;52.184;8.690;2023-02-22T12:37:15;15.20;91.70
4056;DHT22;2043;52.184;8.690;2023-02-22T12:40:09;14.80;92.00
4056;DHT22;2043;52.184;8.690;2023-02-22T12:46:25;14.80;91.30
4056;DHT22;2043;52.184;8.690;2023-02-22T12:59:32;15.00;91.30
4056;DHT22;2043;52.184;8.690;2023-02-22T13:02:17;15.20;91.50
4056;DHT22;2043;52.184;8.690;2023-02-22T13:04:45;15.40;90.80
4056;DHT22;2043;52.184;8.690;2023-02-22T13:07:35;15.50;90.70
4056;DHT22;2043;52.184;8.690;2023-02-22T13:10:46;15.60;90.40
4056;DHT22;2043;52.184;8.690;2023-02-22T13:24:07;15.30;90.00
4056;DHT22;2043;52.184;8.690;2023-02-22T13:29:16;15.20;90.30
4056;DHT22;2043;52.184;8.690;2023-02-22T13:40:40;15.10;90.60
4056;DHT22;2043;52.184;8.690;2023-02-22T13:43:23;15.10;90.50
4056;DHT22;2043;52.184;8.690;2023-02-22T13:54:19;15.00;90.80
4056;DHT22;2043;52.184;8.690;2023-02-22T13:56:49;14.90;91.00
4056;DHT22;2043;52.184;8.690;2023-02-22T13:59:33;14.90;90.30
4056;DHT22;2043;52.184;8.690;2023-02-22T14:02:04;14.90;91.00
4056;DHT22;2043;52.184;8.690;2023-02-22T14:04:36;14.90;90.60
4056;DHT22;2043;52.184;8.690;2023-02-22T14:09:52;14.80;90.90
4056;DHT22;2043;52.184;8.690;2023-02-22T14:18:00;14.60;91.10
4056;DHT22;2043;52.184;8.690;2023-02-22T14:20:35;14.70;91.30
4056;DHT22;2043;52.184;8.690;2023-02-22T14:23:25;14.60;90.90
4056;DHT22;2043;52.184;8.690;2023-02-22T14:25:55;14.60;90.80
4056;DHT22;2043;52.184;8.690;2023-02-22T14:31:12;14.50;91.90
4056;DHT22;2043;52.184;8.690;2023-02-22T14:34:38;14.50;92.80
4056;DHT22;2043;52.184;8.690;2023-02-22T14:37:11;14.50;92.20
4056;DHT22;2043;52.184;8.690;2023-02-22T14:39:49;14.30;92.30
4056;DHT22;2043;52.184;8.690;2023-02-22T14:47:27;14.10;94.00
4056;DHT22;2043;52.184;8.690;2023-02-22T14:50:03;14.10;94.00
4056;DHT22;2043;52.184;8.690;2023-02-22T14:52:35;14.10;94.50
4056;DHT22;2043;52.184;8.690;2023-02-22T14:55:42;14.10;94.20
4056;DHT22;2043;52.184;8.690;2023-02-22T14:58:24;14.00;94.30
4056;DHT22;2043;52.184;8.690;2023-02-22T15:00:53;14.00;94.40
4056;DHT22;2043;52.184;8.690;2023-02-22T15:03:33;14.00;94.60
4056;DHT22;2043;52.184;8.690;2023-02-22T15:06:14;13.90;94.90
4056;DHT22;2043;52.184;8.690;2023-02-22T15:08:42;13.80;94.40
4056;DHT22;2043;52.184;8.690;2023-02-22T15:11:28;13.70;95.00
4056;DHT22;2043;52.184;8.690;2023-02-22T15:13:59;13.70;95.30
4056;DHT22;2043;52.184;8.690;2023-02-22T15:16:29;13.70;95.10
4056;DHT22;2043;52.184;8.690;2023-02-22T15:19:02;13.70;95.30
4056;DHT22;2043;52.184;8.690;2023-02-22T15:21:31;13.60;95.80
4056;DHT22;2043;52.184;8.690;2023-02-22T15:24:02;13.60;95.80
4056;DHT22;2043;52.184;8.690;2023-02-22T15:26:36;13.60;95.80
4056;DHT22;2043;52.184;8.690;2023-02-22T15:29:37;13.60;96.00
4056;DHT22;2043;52.184;8.690;2023-02-22T15:32:29;13.50;96.20
4056;DHT22;2043;52.184;8.690;2023-02-22T15:35:27;13.50;96.10
4056;DHT22;2043;52.184;8.690;2023-02-22T15:38:03;13.40;96.30
4056;DHT22;2043;52.184;8.690;2023-02-22T15:40:32;13.40;96.60
4056;DHT22;2043;52.184;8.690;2023-02-22T15:43:01;13.40;96.60
4056;DHT22;2043;52.184;8.690;2023-02-22T15:45:29;13.30;96.80
4056;DHT22;2043;52.184;8.690;2023-02-22T15:47:58;13.30;97.10
4056;DHT22;2043;52.184;8.690;2023-02-22T15:50:30;13.20;97.30
4056;DHT22;2043;52.184;8.690;2023-02-22T15:53:07;13.20;97.60
4056;DHT22;2043;52.184;8.690;2023-02-22T15:55:44;13.10;97.70
4056;DHT22;2043;52.184;8.690;2023-02-22T16:00:44;13.10;98.30
4056;DHT22;2043;52.184;8.690;2023-02-22T16:03:18;13.10;98.70
4056;DHT22;2043;52.184;8.690;2023-02-22T16:05:50;13.00;99.10
4056;DHT22;2043;52.184;8.690;2023-02-22T16:08:29;13.00;99.10
4056;DHT22;2043;52.184;8.690;2023-02-22T16:11:22;12.90;99.60
4056;DHT22;2043;52.184;8.690;2023-02-22T16:14:01;12.80;99.90
4056;DHT22;2043;52.184;8.690;2023-02-22T16:16:37;12.70;99.90
4056;DHT22;2043;52.184;8.690;2023-02-22T16:21:57;12.40;99.90
4056;DHT22;2043;52.184;8.690;2023-02-22T16:24:34;12.30;99.90
4056;DHT22;2043;52.184;8.690;2023-02-22T16:27:22;12.10;99.90
4056;DHT22;2043;52.184;8.690;2023-02-22T16:30:20;12.00;99.90
4056;DHT22;2043;52.184;8.690;2023-02-22T16:32:55;11.90;99.90
4056;DHT22;2043;52.184;8.690;2023-02-22T16:35:27;11.70;99.90
4056;DHT22;2043;52.184;8.690;2023-02-22T16:38:03;11.60;99.90
4056;DHT22;2043;52.184;8.690;2023-02-22T16:43:05;11.50;99.90
4056;DHT22;2043;52.184;8.690;2023-02-22T16:45:32;11.40;99.90
4056;DHT22;2043;52.184;8.690;2023-02-22T16:48:00;11.20;99.90
4056;DHT22;2043;52.184;8.690;2023-02-22T16:50:30;11.10;99.90
4056;DHT22;2043;52.184;8.690;2023-02-22T16:52:59;10.90;99.90
4056;DHT22;2043;52.184;8.690;2023-02-22T16:55:26;10.80;99.90
4056;DHT22;2043;52.184;8.690;2023-02-22T16:57:55;10.70;99.90
4056;DHT22;2043;52.184;8.690;2023-02-22T17:00:23;10.60;99.90
4056;DHT22;2043;52.184;8.690;2023-02-22T17:03:02;10.40;99.90
4056;DHT22;2043;52.184;8.690;2023-02-22T17:05:30;10.30;99.90
4056;DHT22;2043;52.184;8.690;2023-02-22T17:07:57;10.10;99.90
4056;DHT22;2043;52.184;8.690;2023-02-22T17:12:52;9.90;99.90
4056;DHT22;2043;52.184;8.690;2023-02-22T17:15:23;9.80;99.90
4056;DHT22;2043;52.184;8.690;2023-02-22T17:17:51;9.80;99.90
4056;DHT22;2043;52.184;8.690;2023-02-22T17:20:18;9.70;99.90
4056;DHT22;2043;52.184;8.690;2023-02-22T17:23:02;9.70;99.90
4056;DHT22;2043;52.184;8.690;2023-02-22T17:27:59;9.60;99.90
4056;DHT22;2043;52.184;8.690;2023-02-22T17:30:25;9.50;99.90
4056;DHT22;2043;52.184;8.690;2023-02-22T17:32:53;9.50;99.90
4056;DHT22;2043;52.184;8.690;2023-02-22T17:35:30;9.40;99.90
4056;DHT22;2043;52.184;8.690;2023-02-22T17:38:03;9.30;99.90
4056;DHT22;2043;52.184;8.690;2023-02-22T17:40:35;9.20;99.90
4056;DHT22;2043;52.184;8.690;2023-02-22T17:43:03;9.20;99.90
4056;DHT22;2043;52.184;8.690;2023-02-22T17:45:31;9.10;99.90
4056;DHT22;2043;52.184;8.690;2023-02-22T17:47:58;9.10;99.90
4056;DHT22;2043;52.184;8.690;2023-02-22T17:50:25;9.10;99.90
4056;DHT22;2043;52.184;8.690;2023-02-22T17:52:53;9.00;99.90
4056;DHT22;2043;52.184;8.690;2023-02-22T17:55:20;9.00;99.90
4056;DHT22;2043;52.184;8.690;2023-02-22T17:57:52;8.90;99.90
4056;DHT22;2043;52.184;8.690;2023-02-22T18:00:29;8.90;99.90
4056;DHT22;2043;52.184;8.690;2023-02-22T18:03:08;8.90;99.90
4056;DHT22;2043;52.184;8.690;2023-02-22T18:05:40;8.80;99.90
4056;DHT22;2043;52.184;8.690;2023-02-22T18:08:07;8.80;99.90
4056;DHT22;2043;52.184;8.690;2023-02-22T18:10:34;8.70;99.90
4056;DHT22;2043;52.184;8.690;2023-02-22T18:13:01;8.70;99.90
4056;DHT22;2043;52.184;8.690;2023-02-22T18:15:29;8.70;99.90
4056;DHT22;2043;52.184;8.690;2023-02-22T18:18:01;8.70;99.90
4056;DHT22;2043;52.184;8.690;2023-02-22T18:20:28;8.70;99.90
4056;DHT22;2043;52.184;8.690;2023-02-22T18:23:05;8.70;99.90
4056;DHT22;2043;52.184;8.690;2023-02-22T18:25:34;8.60;99.90
4056;DHT22;2043;52.184;8.690;2023-02-22T18:28:03;8.60;99.90
4056;DHT22;2043;52.184;8.690;2023-02-22T18:30:32;8.60;99.90
4056;DHT22;2043;52.184;8.690;2023-02-22T18:33:02;8.50;99.90
4056;DHT22;2043;52.184;8.690;2023-02-22T18:35:29;8.50;99.90
4056;DHT22;2043;52.184;8.690;2023-02-22T18:37:56;8.50;99.90
4056;DHT22;2043;52.184;8.690;2023-02-22T18:40:23;8.50;99.90
4056;DHT22;2043;52.184;8.690;2023-02-22T18:42:50;8.50;99.90
4056;DHT22;2043;52.184;8.690;2023-02-22T18:45:17;8.50;99.90
4056;DHT22;2043;52.184;8.690;2023-02-22T18:47:44;8.40;99.90
4056;DHT22;2043;52.184;8.690;2023-02-22T18:50:12;8.30;99.90
4056;DHT22;2043;52.184;8.690;2023-02-22T18:52:39;8.30;99.90
4056;DHT22;2043;52.184;8.690;2023-02-22T18:55:14;8.20;99.90
4056;DHT22;2043;52.184;8.690;2023-02-22T18:57:41;8.20;99.90
4056;DHT22;2043;52.184;8.690;2023-02-22T19:00:11;8.20;99.90
4056;DHT22;2043;52.184;8.690;2023-02-22T19:02:38;8.30;99.90
4056;DHT22;2043;52.184;8.690;2023-02-22T19:05:10;8.30;99.90
4056;DHT22;2043;52.184;8.690;2023-02-22T19:07:37;8.30;99.90
4056;DHT22;2043;52.184;8.690;2023-02-22T19:10:05;8.20;99.90
4056;DHT22;2043;52.184;8.690;2023-02-22T19:12:32;8.20;99.90
4056;DHT22;2043;52.184;8.690;2023-02-22T19:15:00;8.10;99.90
4056;DHT22;2043;52.184;8.690;2023-02-22T19:17:28;8.10;99.90
4056;DHT22;2043;52.184;8.690;2023-02-22T19:19:55;8.10;99.90
4056;DHT22;2043;52.184;8.690;2023-02-22T19:22:22;8.10;99.90
4056;DHT22;2043;52.184;8.690;2023-02-22T19:24:52;8.10;99.90
4056;DHT22;2043;52.184;8.690;2023-02-22T19:27:20;8.10;99.90
4056;DHT22;2043;52.184;8.690;2023-02-22T19:29:47;8.10;99.90
4056;DHT22;2043;52.184;8.690;2023-02-22T19:32:15;8.20;99.90
4056;DHT22;2043;52.184;8.690;2023-02-22T19:34:43;8.20;99.90
4056;DHT22;2043;52.184;8.690;2023-02-22T19:37:10;8.20;99.90
4056;DHT22;2043;52.184;8.690;2023-02-22T19:39:38;8.30;99.90
4056;DHT22;2043;52.184;8.690;2023-02-22T19:42:08;8.30;99.90
4056;DHT22;2043;52.184;8.690;2023-02-22T19:44:36;8.30;99.90